Terminal Aerodrome Forecast
Issued by NWS Melbourne, FL

Home | Current Version | Previous Version | Text Only | Print | Product List | Glossary On
Versions: 1 2 3 4 5 6 7 8 9 10 11 12 13 14 15 16 17 18
000
FTUS42 KMLB 161700
TAFVRB
TAF
KVRB 161735Z 1618/1718 07008KT P6SM SCT040 BKN250
     FM161900 10009KT P6SM VCTS SCT040CB BKN080
     FM170100 26004KT P6SM SCT080 OVC150
     FM171400 25009KT P6SM FEW020 SCT120 SCT250=

USA.gov is the U.S. government's official web portal to all federal, state and local government web resources and services.